createdAt,value
2022-09-14T00:00:23.319Z,15.02
2022-09-14T00:03:26.297Z,15.02
2022-09-14T00:06:30.463Z,14.87
2022-09-14T00:09:34.617Z,15.03
2022-09-14T00:12:37.409Z,14.93
2022-09-14T00:15:42.366Z,14.78
2022-09-14T00:18:46.015Z,14.78
2022-09-14T00:21:52.981Z,14.77
2022-09-14T00:24:57.170Z,14.94
2022-09-14T00:27:59.947Z,15.02
2022-09-14T00:31:04.534Z,15.11
2022-09-14T00:34:09.606Z,15.14
2022-09-14T00:37:13.185Z,15.21
2022-09-14T00:40:18.808Z,15.29
2022-09-14T00:43:21.568Z,15.32
2022-09-14T00:46:25.905Z,15.33
2022-09-14T00:49:42.045Z,15.37
2022-09-14T00:52:47.908Z,15.38
2022-09-14T00:55:54.275Z,15.43
2022-09-14T00:58:59.604Z,15.46
2022-09-14T01:02:02.690Z,15.48
2022-09-14T01:05:06.739Z,15.44
2022-09-14T01:08:37.414Z,15.44
2022-09-14T01:11:56.100Z,15.45
2022-09-14T01:15:04.813Z,15.53
2022-09-14T01:18:14.849Z,15.49
2022-09-14T01:21:21.979Z,15.56
2022-09-14T01:24:29.556Z,15.55
2022-09-14T01:27:41.034Z,15.57
2022-09-14T01:30:45.610Z,15.60
2022-09-14T01:33:55.019Z,15.54
2022-09-14T01:37:01.931Z,15.45
2022-09-14T01:40:08.301Z,15.34
2022-09-14T01:43:17.063Z,15.25
2022-09-14T01:46:26.010Z,15.10
2022-09-14T01:49:34.280Z,15.07
2022-09-14T01:52:43.352Z,15.15
2022-09-14T01:55:53.076Z,15.02
2022-09-14T01:59:04.566Z,14.95
2022-09-14T02:02:12.315Z,15.16
2022-09-14T02:05:21.248Z,15.24
2022-09-14T02:08:26.004Z,15.33
2022-09-14T02:11:28.812Z,15.18
2022-09-14T02:14:33.498Z,15.06
2022-09-14T02:17:36.571Z,15.03
2022-09-14T02:20:45.201Z,14.98
2022-09-14T02:23:49.109Z,14.99
2022-09-14T02:26:53.198Z,14.88
2022-09-14T02:29:58.502Z,14.84
2022-09-14T02:33:10.572Z,14.84
2022-09-14T02:36:20.272Z,14.80
2022-09-14T02:39:33.294Z,14.96
2022-09-14T02:42:46.499Z,14.88
2022-09-14T02:46:00.327Z,14.94
2022-09-14T02:49:10.852Z,15.10
2022-09-14T02:52:19.595Z,15.16
2022-09-14T02:55:26.079Z,15.25
2022-09-14T03:02:52.707Z,15.28
2022-09-14T03:05:57.034Z,15.37
2022-09-14T03:08:59.839Z,15.38
2022-09-14T03:12:02.885Z,15.42
2022-09-14T03:15:06.521Z,15.25
2022-09-14T03:18:14.523Z,15.31
2022-09-14T03:21:18.534Z,15.16
2022-09-14T03:24:21.610Z,15.06
2022-09-14T03:27:24.567Z,14.99
2022-09-14T03:30:28.007Z,14.92
2022-09-14T03:33:32.738Z,15.11
2022-09-14T03:36:35.593Z,15.21
2022-09-14T03:39:38.403Z,15.09
2022-09-14T03:42:44.054Z,15.21
2022-09-14T03:45:46.862Z,15.22
2022-09-14T03:48:51.246Z,15.21
2022-09-14T03:51:58.993Z,15.15
2022-09-14T03:55:02.749Z,15.10
2022-09-14T03:58:05.576Z,15.18
2022-09-14T04:01:09.945Z,15.23
2022-09-14T04:04:14.257Z,15.02
2022-09-14T04:07:17.849Z,14.86
2022-09-14T04:10:20.667Z,14.77
2022-09-14T04:13:23.492Z,14.85
2022-09-14T04:16:26.358Z,14.91
2022-09-14T04:19:31.125Z,15.02
2022-09-14T04:22:35.037Z,14.97
2022-09-14T04:25:37.827Z,14.98
2022-09-14T04:28:41.143Z,15.06
2022-09-14T04:31:44.636Z,14.97
2022-09-14T04:34:49.490Z,15.13
2022-09-14T04:37:52.323Z,15.07
2022-09-14T04:40:55.141Z,15.05
2022-09-14T04:43:58.723Z,15.18
2022-09-14T04:47:01.546Z,15.20
2022-09-14T04:50:06.796Z,15.22
2022-09-14T04:53:09.604Z,15.27
2022-09-14T04:56:14.288Z,15.28
2022-09-14T04:59:17.221Z,15.31
2022-09-14T05:02:20.134Z,15.35
2022-09-14T05:05:24.442Z,15.25
2022-09-14T05:08:27.256Z,15.16
2022-09-14T05:11:32.368Z,15.17
2022-09-14T05:14:35.232Z,15.17
2022-09-14T05:17:38.048Z,15.21
2022-09-14T05:20:42.268Z,15.28
2022-09-14T05:23:45.212Z,15.35
2022-09-14T05:26:48.691Z,15.36
2022-09-14T05:29:51.775Z,15.36
2022-09-14T05:32:57.929Z,15.42
2022-09-14T05:36:04.500Z,15.34
2022-09-14T05:39:08.177Z,15.37
2022-09-14T05:42:11.039Z,15.13
2022-09-14T05:45:13.837Z,15.09
2022-09-14T05:48:17.309Z,14.95
2022-09-14T05:51:23.781Z,14.97
2022-09-14T05:54:26.593Z,14.97
2022-09-14T05:57:29.400Z,14.95
2022-09-14T06:00:32.688Z,15.00
2022-09-14T06:03:35.611Z,15.06
2022-09-14T06:06:39.819Z,15.05
2022-09-14T06:09:43.707Z,15.04
2022-09-14T06:12:46.582Z,15.14
2022-09-14T06:15:49.398Z,15.28
2022-09-14T06:18:54.812Z,15.30
2022-09-14T06:21:59.145Z,15.40
2022-09-14T06:25:01.938Z,15.46
2022-09-14T06:28:04.733Z,15.51
2022-09-14T06:31:10.058Z,15.53
2022-09-14T06:34:12.867Z,15.62
2022-09-14T06:37:17.087Z,15.62
2022-09-14T06:40:19.868Z,15.63
2022-09-14T06:43:22.713Z,15.61
2022-09-14T06:46:27.762Z,15.66
2022-09-14T06:49:30.930Z,15.54
2022-09-14T06:52:37.251Z,15.59
2022-09-14T06:55:40.082Z,15.65
2022-09-14T06:58:43.321Z,15.66
2022-09-14T07:01:46.972Z,15.54
2022-09-14T07:04:49.758Z,15.46
2022-09-14T07:07:54.277Z,15.47
2022-09-14T07:10:57.745Z,15.48
2022-09-14T07:14:01.928Z,15.44
2022-09-14T07:17:05.222Z,15.46
2022-09-14T07:20:08.976Z,15.50
2022-09-14T07:23:13.654Z,15.63
2022-09-14T07:26:18.979Z,15.69
2022-09-14T07:29:22.029Z,15.74
2022-09-14T07:32:24.946Z,15.74
2022-09-14T07:35:27.788Z,15.79
2022-09-14T07:38:51.259Z,15.78
2022-09-14T07:41:54.794Z,15.88
2022-09-14T07:44:57.561Z,15.93
2022-09-14T07:48:01.062Z,15.91
2022-09-14T07:51:05.852Z,15.95
2022-09-14T07:54:12.984Z,15.97
2022-09-14T07:57:16.040Z,16.05
2022-09-14T08:00:18.997Z,16.02
2022-09-14T08:03:21.776Z,15.88
2022-09-14T08:06:26.835Z,15.83
2022-09-14T08:09:30.996Z,15.81
2022-09-14T08:12:33.803Z,15.79
2022-09-14T08:15:37.881Z,15.90
2022-09-14T08:18:41.122Z,15.80
2022-09-14T08:21:47.182Z,15.84
2022-09-14T08:24:51.531Z,15.86
2022-09-14T08:27:54.763Z,15.88
2022-09-14T08:30:57.492Z,15.89
2022-09-14T08:34:02.632Z,15.94
2022-09-14T08:37:05.663Z,15.95
2022-09-14T08:40:12.890Z,15.99
2022-09-14T08:43:16.186Z,16.07
2022-09-14T08:46:28.685Z,16.13
2022-09-14T08:49:43.913Z,16.11
2022-09-14T08:52:48.786Z,16.14
2022-09-14T08:55:57.666Z,16.22
2022-09-14T08:59:21.877Z,16.23
2022-09-14T09:02:51.354Z,16.18
2022-09-14T09:06:00.044Z,16.18
2022-09-14T09:09:14.024Z,16.21
2022-09-14T09:12:20.505Z,16.29
2022-09-14T09:15:26.199Z,16.26
2022-09-14T09:18:37.475Z,16.26
2022-09-14T09:21:44.393Z,16.22
2022-09-14T09:24:52.160Z,16.22
2022-09-14T09:28:01.770Z,16.26
2022-09-14T09:31:12.657Z,16.31
2022-09-14T09:34:47.457Z,16.36
2022-09-14T09:38:02.306Z,16.43
2022-09-14T09:41:13.012Z,16.43
2022-09-14T09:44:17.245Z,16.47
2022-09-14T09:47:27.893Z,16.47
2022-09-14T09:50:30.780Z,16.49
2022-09-14T09:53:35.668Z,16.53
2022-09-14T09:56:40.352Z,16.57
2022-09-14T09:59:46.754Z,16.59
2022-09-14T10:02:50.258Z,16.61
2022-09-14T10:06:02.139Z,16.62
2022-09-14T10:09:14.188Z,16.66
2022-09-14T10:12:17.766Z,16.69
2022-09-14T10:15:25.800Z,16.68
2022-09-14T10:18:30.245Z,16.66
2022-09-14T10:21:33.082Z,16.65
2022-09-14T10:24:36.880Z,16.56
2022-09-14T10:27:43.101Z,16.59
2022-09-14T10:30:51.515Z,16.67
2022-09-14T10:33:56.997Z,16.68
2022-09-14T10:37:13.606Z,16.65
2022-09-14T10:40:20.625Z,16.69
2022-09-14T10:43:39.459Z,16.68
2022-09-14T10:46:49.682Z,16.76
2022-09-14T10:50:06.806Z,16.85
2022-09-14T10:53:21.715Z,16.82
2022-09-14T10:56:28.437Z,16.86
2022-09-14T10:59:37.692Z,16.86
2022-09-14T11:03:15.888Z,16.88
2022-09-14T11:06:29.413Z,16.96
2022-09-14T11:09:39.607Z,16.97
2022-09-14T11:12:50.455Z,17.03
2022-09-14T11:16:06.064Z,17.04
2022-09-14T11:19:20.766Z,17.03
2022-09-14T11:22:30.734Z,17.01
2022-09-14T11:25:47.957Z,17.07
2022-09-14T11:28:54.197Z,17.14
2022-09-14T11:32:20.343Z,17.09
2022-09-14T11:35:30.106Z,17.15
2022-09-14T11:38:37.312Z,17.17
2022-09-14T11:41:47.108Z,17.21
2022-09-14T11:44:56.207Z,17.19
2022-09-14T11:48:31.987Z,17.20
2022-09-14T11:51:37.764Z,17.18
2022-09-14T11:54:46.641Z,17.20
2022-09-14T11:57:50.451Z,17.25
2022-09-14T12:01:26.631Z,17.20
2022-09-14T12:04:29.458Z,17.21
2022-09-14T12:08:06.695Z,17.16
2022-09-14T12:11:28.685Z,17.18
2022-09-14T12:14:40.316Z,17.23
2022-09-14T12:17:45.280Z,17.27
2022-09-14T12:20:52.877Z,17.26
2022-09-14T12:23:58.164Z,17.25
2022-09-14T12:27:16.260Z,17.26
2022-09-14T12:31:09.398Z,17.28
2022-09-14T12:34:18.884Z,17.27
2022-09-14T12:37:32.882Z,17.37
2022-09-14T12:40:38.784Z,17.37
2022-09-14T12:43:59.453Z,17.35
2022-09-14T12:47:35.899Z,17.42
2022-09-14T12:50:41.600Z,17.55
2022-09-14T12:53:45.198Z,17.55
2022-09-14T12:56:58.325Z,17.54
2022-09-14T13:00:11.567Z,17.61
2022-09-14T13:03:41.482Z,17.59
2022-09-14T13:06:46.446Z,17.62
2022-09-14T13:09:52.521Z,17.72
2022-09-14T13:12:57.595Z,17.79
2022-09-14T13:16:02.841Z,17.73
2022-09-14T13:19:11.338Z,17.79
2022-09-14T13:22:20.822Z,17.77
2022-09-14T13:25:31.142Z,17.86
2022-09-14T13:28:36.144Z,17.93
2022-09-14T13:31:41.193Z,17.93
2022-09-14T13:34:44.214Z,17.89
2022-09-14T13:37:48.436Z,17.88
2022-09-14T13:40:54.191Z,17.88
2022-09-14T13:43:59.656Z,17.86
2022-09-14T13:47:06.134Z,17.85
2022-09-14T13:50:10.158Z,17.89
2022-09-14T13:53:48.681Z,18.01
2022-09-14T13:57:16.456Z,18.02
2022-09-14T14:00:22.588Z,18.12
2022-09-14T14:03:30.660Z,18.11
2022-09-14T14:06:38.006Z,18.11
2022-09-14T14:09:50.968Z,18.07
2022-09-14T14:12:54.114Z,18.09
2022-09-14T14:16:17.204Z,18.08
2022-09-14T14:19:31.170Z,18.12
2022-09-14T14:22:37.672Z,18.16
2022-09-14T14:25:46.036Z,18.15
2022-09-14T14:28:49.641Z,18.18
2022-09-14T14:31:56.013Z,18.10
2022-09-14T14:35:05.682Z,18.20
2022-09-14T14:38:09.598Z,18.18
2022-09-14T14:41:15.909Z,18.18
2022-09-14T14:44:21.902Z,18.06
2022-09-14T14:47:27.608Z,18.03
2022-09-14T14:50:37.308Z,17.89
2022-09-14T14:53:41.601Z,17.89
2022-09-14T14:56:46.616Z,17.95
2022-09-14T14:59:52.913Z,17.94
2022-09-14T15:02:57.130Z,17.91
2022-09-14T15:06:18.257Z,17.90
2022-09-14T15:09:34.008Z,17.99
2022-09-14T15:12:37.939Z,18.04
2022-09-14T15:15:43.008Z,17.99
2022-09-14T15:18:47.435Z,18.02
2022-09-14T15:21:50.249Z,18.06
2022-09-14T15:24:53.188Z,17.86
2022-09-14T15:27:56.347Z,17.71
2022-09-14T15:30:59.688Z,17.76
2022-09-14T15:34:03.964Z,17.80
2022-09-14T15:37:06.903Z,17.83
2022-09-14T15:40:11.974Z,17.89
2022-09-14T15:43:14.915Z,17.80
2022-09-14T15:46:18.011Z,17.84
2022-09-14T15:49:24.196Z,17.73
2022-09-14T15:52:27.149Z,17.74
2022-09-14T15:55:30.084Z,17.82
2022-09-14T15:58:33.310Z,17.82
2022-09-14T16:01:37.747Z,17.86
2022-09-14T16:04:44.704Z,17.84
2022-09-14T16:07:47.848Z,17.70
2022-09-14T16:10:59.172Z,17.31
2022-09-14T16:14:02.738Z,17.16
2022-09-14T16:17:08.275Z,17.14
2022-09-14T16:20:13.464Z,17.00
2022-09-14T16:23:16.416Z,16.90
2022-09-14T16:26:21.558Z,16.91
2022-09-14T16:29:25.165Z,16.93
2022-09-14T16:32:28.088Z,16.94
2022-09-14T16:35:32.607Z,17.03
2022-09-14T16:38:36.224Z,17.04
2022-09-14T16:41:41.797Z,17.12
2022-09-14T16:44:44.715Z,17.16
2022-09-14T16:47:47.531Z,17.24
2022-09-14T16:50:54.922Z,17.26
2022-09-14T16:53:59.862Z,17.31
2022-09-14T16:57:03.132Z,17.37
2022-09-14T17:00:07.051Z,17.38
2022-09-14T17:03:10.437Z,17.38
2022-09-14T17:06:17.029Z,17.34
2022-09-14T17:09:22.138Z,17.20
2022-09-14T17:12:24.986Z,17.16
2022-09-14T17:15:27.812Z,17.13
2022-09-14T17:18:30.772Z,17.21
2022-09-14T17:21:37.765Z,17.29
2022-09-14T17:24:40.753Z,17.24
2022-09-14T17:27:43.802Z,17.20
2022-09-14T17:30:46.710Z,17.27
2022-09-14T17:33:50.062Z,17.25
2022-09-14T17:36:54.356Z,17.38
2022-09-14T17:39:57.280Z,17.26
2022-09-14T17:43:00.110Z,17.19
2022-09-14T17:46:04.117Z,17.23
2022-09-14T17:49:08.667Z,17.37
2022-09-14T17:52:15.080Z,17.24
2022-09-14T17:55:18.388Z,17.27
2022-09-14T17:58:21.105Z,17.21
2022-09-14T18:01:24.360Z,17.37
2022-09-14T18:04:28.135Z,17.41
2022-09-14T18:07:32.877Z,17.47
2022-09-14T18:10:37.078Z,17.48
2022-09-14T18:13:42.106Z,17.50
2022-09-14T18:16:45.787Z,17.44
2022-09-14T18:19:48.737Z,17.47
2022-09-14T18:22:53.094Z,17.52
2022-09-14T18:25:56.156Z,17.50
2022-09-14T18:28:59.007Z,17.48
2022-09-14T18:32:02.048Z,17.46
2022-09-14T18:35:06.530Z,17.41
2022-09-14T18:38:13.414Z,17.38
2022-09-14T18:41:17.780Z,17.31
2022-09-14T18:44:20.662Z,17.37
2022-09-14T18:47:26.031Z,17.22
2022-09-14T18:50:28.893Z,17.19
2022-09-14T18:53:33.812Z,17.23
2022-09-14T18:56:38.383Z,17.24
2022-09-14T18:59:41.333Z,17.24
2022-09-14T19:02:44.551Z,17.21
2022-09-14T19:05:47.411Z,17.18
2022-09-14T19:08:51.699Z,17.18
2022-09-14T19:11:54.724Z,17.19
2022-09-14T19:14:57.764Z,17.16
2022-09-14T19:18:01.079Z,16.99
2022-09-14T19:21:08.336Z,17.04
2022-09-14T19:24:14.617Z,17.02
2022-09-14T19:27:17.668Z,16.99
2022-09-14T19:30:22.907Z,17.00
2022-09-14T19:33:25.931Z,17.04
2022-09-14T19:36:30.204Z,17.04
2022-09-14T19:39:34.516Z,17.03
2022-09-14T19:42:37.611Z,17.04
2022-09-14T19:45:40.519Z,17.02
2022-09-14T19:48:44.075Z,17.00
2022-09-14T19:51:47.517Z,17.01
2022-09-14T19:54:51.843Z,17.01
2022-09-14T19:57:55.031Z,16.98
2022-09-14T20:00:58.843Z,17.02
2022-09-14T20:04:02.487Z,17.03
2022-09-14T20:07:07.632Z,17.03
2022-09-14T20:10:12.533Z,17.05
2022-09-14T20:13:15.557Z,17.01
2022-09-14T20:16:21.041Z,17.05
2022-09-14T20:19:26.171Z,17.05
2022-09-14T20:22:29.391Z,16.51
2022-09-14T20:25:34.893Z,16.00
2022-09-14T20:28:39.641Z,16.01
2022-09-14T20:31:42.715Z,15.68
2022-09-14T20:34:45.666Z,15.57
2022-09-14T20:37:48.753Z,15.51
2022-09-14T20:40:58.518Z,15.44
2022-09-14T20:44:01.541Z,15.35
2022-09-14T20:47:04.698Z,15.35
2022-09-14T20:50:08.093Z,15.27
2022-09-14T20:53:11.361Z,15.21
2022-09-14T20:56:17.301Z,15.20
2022-09-14T20:59:22.726Z,15.15
2022-09-14T21:02:25.724Z,15.17
2022-09-14T21:05:28.878Z,15.20
2022-09-14T21:08:34.078Z,15.12
2022-09-14T21:11:38.824Z,15.18
2022-09-14T21:14:42.575Z,15.23
2022-09-14T21:17:45.364Z,15.28
2022-09-14T21:20:48.155Z,15.31
2022-09-14T21:23:51.639Z,15.33
2022-09-14T21:26:56.993Z,15.31
2022-09-14T21:29:59.848Z,15.36
2022-09-14T21:33:02.742Z,15.42
2022-09-14T21:36:08.020Z,15.34
2022-09-14T21:39:13.052Z,15.25
2022-09-14T21:42:43.476Z,15.19
2022-09-14T21:45:46.710Z,15.09
2022-09-14T21:48:49.931Z,15.12
2022-09-14T21:51:53.103Z,15.01
2022-09-14T21:54:56.211Z,15.03
2022-09-14T21:58:00.432Z,14.96
2022-09-14T22:01:03.830Z,14.91
2022-09-14T22:04:08.016Z,14.91
2022-09-14T22:07:10.807Z,14.86
2022-09-14T22:10:13.719Z,14.82
2022-09-14T22:13:18.817Z,14.82
2022-09-14T22:16:21.946Z,14.73
2022-09-14T22:19:27.075Z,14.52
2022-09-14T22:22:29.838Z,14.51
2022-09-14T22:25:33.809Z,14.32
2022-09-14T22:28:40.093Z,14.20
2022-09-14T22:31:44.589Z,14.20
2022-09-14T22:34:50.740Z,14.18
2022-09-14T22:37:53.567Z,14.19
2022-09-14T22:40:57.009Z,14.23
2022-09-14T22:44:01.204Z,14.13
2022-09-14T22:47:04.005Z,14.09
2022-09-14T22:50:07.829Z,14.05
2022-09-14T22:53:11.059Z,14.01
2022-09-14T22:56:17.663Z,13.96
2022-09-14T22:59:21.870Z,13.94
2022-09-14T23:02:24.904Z,13.95
2022-09-14T23:05:27.850Z,13.95
2022-09-14T23:08:31.246Z,13.98
2022-09-14T23:11:34.191Z,13.99
2022-09-14T23:14:38.369Z,13.98
2022-09-14T23:17:41.283Z,13.99
2022-09-14T23:20:45.743Z,14.03
2022-09-14T23:23:52.199Z,14.05
2022-09-14T23:26:55.049Z,14.06
2022-09-14T23:29:59.306Z,14.01
2022-09-14T23:33:02.707Z,13.89
2022-09-14T23:36:05.774Z,13.87
2022-09-14T23:39:08.616Z,13.80
2022-09-14T23:42:11.828Z,13.78
2022-09-14T23:45:16.671Z,13.88
2022-09-14T23:48:19.581Z,13.90
2022-09-14T23:51:22.635Z,13.96
2022-09-14T23:54:25.537Z,13.99
2022-09-14T23:57:28.355Z,13.95
